createdAt,value
2023-03-12T07:44:57.308Z,92124.22
2023-03-12T07:47:24.686Z,92126.38
2023-03-12T07:49:51.924Z,92121.50
2023-03-12T07:52:20.281Z,92125.97
2023-03-12T07:54:47.050Z,92142.09
2023-03-12T07:57:13.730Z,92139.94
2023-03-12T07:59:40.282Z,92153.00
2023-03-12T08:02:07.064Z,92159.72
2023-03-12T08:04:33.672Z,92150.72
2023-03-12T08:07:00.248Z,92139.63
2023-03-12T08:09:26.738Z,92134.16
2023-03-12T08:11:53.406Z,92148.41
2023-03-12T08:14:20.137Z,92169.66
2023-03-12T08:16:46.773Z,92182.25
2023-03-12T08:19:13.325Z,92164.69
2023-03-12T08:21:39.851Z,92160.34
2023-03-12T08:24:06.788Z,92150.88
2023-03-12T08:26:33.250Z,92156.19
2023-03-12T08:29:02.381Z,92176.72
2023-03-12T08:31:29.342Z,92161.22
2023-03-12T08:33:56.119Z,92164.63
2023-03-12T08:36:22.786Z,92183.13
2023-03-12T08:38:49.328Z,92179.09
2023-03-12T08:41:19.228Z,92170.38
2023-03-12T08:43:46.821Z,92180.47
2023-03-12T08:46:13.879Z,92179.94
2023-03-12T08:48:41.104Z,92186.78
2023-03-12T08:51:07.845Z,92188.19
2023-03-12T08:53:36.261Z,92193.03
2023-03-12T08:56:03.699Z,92192.94
2023-03-12T08:58:30.662Z,92186.38
2023-03-12T09:00:57.692Z,92188.38
2023-03-12T09:03:24.957Z,92195.94
2023-03-12T09:05:51.716Z,92190.09
2023-03-12T09:08:18.505Z,92208.88
2023-03-12T09:10:50.117Z,92204.66
2023-03-12T09:13:16.932Z,92194.75
2023-03-12T09:15:44.029Z,92212.03
2023-03-12T09:18:10.559Z,92208.06
2023-03-12T09:20:37.106Z,92210.59
2023-03-12T09:23:03.597Z,92210.63
2023-03-12T09:25:30.116Z,92211.34
2023-03-12T09:27:56.811Z,92208.69
2023-03-12T09:30:26.445Z,92215.13
2023-03-12T09:32:53.644Z,92204.09
2023-03-12T09:35:20.350Z,92216.56
2023-03-12T09:37:49.713Z,92204.22
2023-03-12T09:40:23.336Z,92210.47
2023-03-12T09:42:54.829Z,92225.47
2023-03-12T09:45:30.807Z,92219.03
2023-03-12T09:47:59.392Z,92225.88
2023-03-12T09:50:30.227Z,92217.84
2023-03-12T09:53:02.363Z,92233.38
2023-03-12T09:55:37.367Z,92236.72
2023-03-12T09:58:04.257Z,92224.97
2023-03-12T10:00:34.725Z,92226.91
2023-03-12T10:03:09.910Z,92236.59
2023-03-12T10:05:37.266Z,92230.84
2023-03-12T10:08:25.101Z,92242.16
2023-03-12T10:11:16.240Z,92237.69
2023-03-12T10:14:23.038Z,92237.22
2023-03-12T10:17:31.759Z,92239.47
2023-03-12T10:20:10.617Z,92246.94
2023-03-12T10:22:46.196Z,92249.22
2023-03-12T10:25:30.162Z,92258.22
2023-03-12T10:28:07.500Z,92258.44
2023-03-12T10:30:34.159Z,92267.06
2023-03-12T10:33:04.391Z,92258.47
2023-03-12T10:35:31.761Z,92260.50
2023-03-12T10:38:01.017Z,92272.34
2023-03-12T10:40:30.087Z,92271.09
2023-03-12T10:42:56.917Z,92262.72
2023-03-12T10:45:32.936Z,92275.63
2023-03-12T10:48:02.676Z,92271.53
2023-03-12T10:50:34.023Z,92274.75
2023-03-12T10:53:23.661Z,92290.63
2023-03-12T10:56:02.466Z,92277.53
2023-03-12T10:58:49.983Z,92276.84
2023-03-12T11:01:20.367Z,92279.72
2023-03-12T11:03:47.070Z,92277.31
2023-03-12T11:06:25.625Z,92280.63
2023-03-12T11:09:17.594Z,92285.91
2023-03-12T11:11:47.686Z,92287.19
2023-03-12T11:14:19.154Z,92297.03
2023-03-12T11:16:45.879Z,92305.88
2023-03-12T11:19:14.812Z,92290.00
2023-03-12T11:21:55.693Z,92292.16
2023-03-12T11:24:22.267Z,92286.34
2023-03-12T11:26:56.596Z,92294.19
2023-03-12T11:29:25.529Z,92302.91
2023-03-12T11:31:57.438Z,92302.25
2023-03-12T11:34:29.629Z,92295.41
2023-03-12T11:37:01.770Z,92312.66
2023-03-12T11:39:40.062Z,92302.09
2023-03-12T11:42:20.941Z,92311.56
2023-03-12T11:45:20.978Z,92312.53
2023-03-12T11:48:13.272Z,92319.13
2023-03-12T11:50:47.596Z,92319.78
2023-03-12T11:53:45.674Z,92319.34
2023-03-12T11:56:16.696Z,92314.06
2023-03-12T11:59:04.274Z,92313.13
2023-03-12T12:01:55.579Z,92318.25
2023-03-12T12:04:44.029Z,92315.56
2023-03-12T12:07:24.036Z,92305.75
2023-03-12T12:09:58.126Z,92314.34
2023-03-12T12:13:22.669Z,92316.00
2023-03-12T12:16:12.541Z,92320.59
2023-03-12T12:18:43.208Z,92307.16
2023-03-12T12:21:28.488Z,92314.34
2023-03-12T12:24:16.363Z,92312.47
2023-03-12T12:27:04.039Z,92309.03
2023-03-12T12:30:08.398Z,92313.34
2023-03-12T12:32:40.845Z,92301.25
2023-03-12T12:35:19.534Z,92312.13
2023-03-12T12:37:50.697Z,92325.94
2023-03-12T12:40:31.099Z,92325.50
2023-03-12T12:43:42.781Z,92334.97
2023-03-12T12:46:14.727Z,92332.91
2023-03-12T12:48:47.836Z,92334.41
2023-03-12T12:51:20.372Z,92340.16
2023-03-12T12:53:56.530Z,92352.41
2023-03-12T12:56:29.449Z,92347.97
2023-03-12T12:59:10.740Z,92364.19
2023-03-12T13:01:38.222Z,92372.00
2023-03-12T13:04:11.246Z,92368.56
2023-03-12T13:07:17.085Z,92366.63
2023-03-12T13:09:54.930Z,92369.19
2023-03-12T13:12:30.691Z,92375.66
2023-03-12T13:14:58.349Z,92371.28
2023-03-12T13:17:32.681Z,92362.09
2023-03-12T13:20:06.021Z,92387.88
2023-03-12T13:22:38.154Z,92390.59
2023-03-12T13:25:21.695Z,92380.78
2023-03-12T13:27:58.088Z,92364.28
2023-03-12T13:30:33.832Z,92368.53
2023-03-12T13:33:01.805Z,92376.34
2023-03-12T13:35:31.409Z,92381.78
2023-03-12T13:38:37.596Z,92395.38
2023-03-12T13:41:05.756Z,92388.88
2023-03-12T13:43:42.473Z,92385.53
2023-03-12T13:46:28.104Z,92381.94
2023-03-12T13:48:58.034Z,92387.63
2023-03-12T13:51:25.245Z,92392.41
2023-03-12T13:53:58.894Z,92394.94
2023-03-12T13:56:28.671Z,92390.56
2023-03-12T13:59:06.447Z,92406.06
2023-03-12T14:01:55.031Z,92402.53
2023-03-12T14:04:24.734Z,92411.16
2023-03-12T14:06:59.184Z,92400.31
2023-03-12T14:09:39.944Z,92401.38
2023-03-12T14:12:19.940Z,92408.75
2023-03-12T14:15:16.757Z,92401.06
2023-03-12T14:17:44.324Z,92402.69
2023-03-12T14:20:16.598Z,92405.00
2023-03-12T14:22:55.355Z,92398.34
2023-03-12T14:25:37.883Z,92412.31
2023-03-12T14:28:11.101Z,92405.47
2023-03-12T14:30:58.180Z,92404.63
2023-03-12T14:33:26.140Z,92404.59
2023-03-12T14:36:05.102Z,92413.06
2023-03-12T14:38:37.899Z,92411.91
2023-03-12T14:41:15.717Z,92414.03
2023-03-12T14:43:43.774Z,92415.00
2023-03-12T14:46:16.671Z,92412.50
2023-03-12T14:48:43.562Z,92420.34
2023-03-12T14:51:30.632Z,92412.59
2023-03-12T14:54:02.525Z,92409.53
2023-03-12T14:56:33.260Z,92397.31
2023-03-12T14:59:01.899Z,92412.88
2023-03-12T15:01:30.874Z,92398.53
2023-03-12T15:04:01.441Z,92421.47
2023-03-12T15:06:31.408Z,92415.88
2023-03-12T15:08:59.640Z,92416.72
2023-03-12T15:11:28.045Z,92424.47
2023-03-12T15:13:56.165Z,92419.28
2023-03-12T15:16:23.128Z,92421.59
2023-03-12T15:18:50.162Z,92424.59
2023-03-12T15:21:17.204Z,92420.69
2023-03-12T15:23:45.949Z,92427.91
2023-03-12T15:26:16.378Z,92417.75
2023-03-12T15:28:43.363Z,92418.53
2023-03-12T15:31:17.088Z,92424.16
2023-03-12T15:33:44.619Z,92415.53
2023-03-12T15:36:19.745Z,92428.19
2023-03-12T15:38:49.649Z,92425.56
2023-03-12T15:41:26.757Z,92429.44
2023-03-12T15:43:57.782Z,92420.56
2023-03-12T15:46:25.307Z,92419.03
2023-03-12T15:48:54.393Z,92422.44
2023-03-12T15:51:30.791Z,92425.84
2023-03-12T15:54:20.277Z,92427.63
2023-03-12T15:56:47.023Z,92436.00
2023-03-12T15:59:16.410Z,92447.28
2023-03-12T16:01:50.452Z,92438.94
2023-03-12T16:04:17.610Z,92440.47
2023-03-12T16:06:46.974Z,92441.25
2023-03-12T16:09:17.957Z,92432.69
2023-03-12T16:11:44.597Z,92433.31
2023-03-12T16:14:17.815Z,92440.75
2023-03-12T16:16:44.577Z,92441.41
2023-03-12T16:19:19.595Z,92444.47
2023-03-12T16:21:46.496Z,92446.19
2023-03-12T16:24:15.590Z,92449.44
2023-03-12T16:27:05.261Z,92448.53
2023-03-12T16:29:37.154Z,92452.22
2023-03-12T16:32:11.442Z,92445.13
2023-03-12T16:34:37.977Z,92446.75
2023-03-12T16:37:04.495Z,92440.63
2023-03-12T16:39:33.220Z,92457.69
2023-03-12T16:42:03.179Z,92457.84
2023-03-12T16:44:32.407Z,92457.31
2023-03-12T16:47:00.296Z,92452.59
2023-03-12T16:49:27.056Z,92464.03
2023-03-12T16:51:54.465Z,92447.97
2023-03-12T16:54:20.947Z,92467.34
2023-03-12T16:56:48.546Z,92460.34
2023-03-12T16:59:37.995Z,92462.13
2023-03-12T17:02:18.781Z,92460.72
2023-03-12T17:04:45.283Z,92452.72
2023-03-12T17:07:11.797Z,92461.63
2023-03-12T17:09:38.747Z,92460.81
2023-03-12T17:12:18.709Z,92459.97
2023-03-12T17:14:45.467Z,92459.84
2023-03-12T17:17:12.019Z,92456.63
2023-03-12T17:19:38.541Z,92465.66
2023-03-12T17:22:05.128Z,92459.47
2023-03-12T17:24:31.590Z,92466.69
2023-03-12T17:26:58.559Z,92473.97
2023-03-12T17:29:25.102Z,92471.22
2023-03-12T17:31:52.069Z,92472.91
2023-03-12T17:34:18.605Z,92473.88
2023-03-12T17:36:45.110Z,92483.31
2023-03-12T17:39:11.596Z,92485.59
2023-03-12T17:41:38.258Z,92477.69
2023-03-12T17:44:07.065Z,92480.19
2023-03-12T17:46:33.650Z,92486.28
2023-03-12T17:49:00.190Z,92482.06
2023-03-12T17:51:26.681Z,92488.38
2023-03-12T17:53:53.478Z,92490.63
2023-03-12T17:56:20.026Z,92485.78
2023-03-12T17:58:46.641Z,92483.56
2023-03-12T18:01:13.806Z,92478.91
2023-03-12T18:03:40.623Z,92485.38
2023-03-12T18:06:07.229Z,92484.00
2023-03-12T18:08:33.770Z,92480.66
2023-03-12T18:11:01.780Z,92484.63
2023-03-12T18:13:31.326Z,92496.91
2023-03-12T18:15:58.367Z,92488.50
2023-03-12T18:18:26.152Z,92495.56
2023-03-12T18:20:53.136Z,92502.97
2023-03-12T18:23:19.822Z,92502.56
2023-03-12T18:25:46.431Z,92509.53
2023-03-12T18:28:14.410Z,92512.06
2023-03-12T18:30:41.340Z,92516.06
2023-03-12T18:33:07.866Z,92517.13
2023-03-12T18:35:35.073Z,92520.84
2023-03-12T18:38:01.802Z,92524.44
2023-03-12T18:40:29.541Z,92526.81
2023-03-12T18:42:59.833Z,92521.66
2023-03-12T18:45:27.464Z,92518.31
2023-03-12T18:47:54.010Z,92511.91
2023-03-12T18:50:21.577Z,92511.59
2023-03-12T18:52:48.099Z,92510.84
2023-03-12T18:55:18.375Z,92519.72
2023-03-12T18:57:46.474Z,92512.94
2023-03-12T19:00:17.589Z,92511.22
2023-03-12T19:02:47.694Z,92512.88
2023-03-12T19:05:15.184Z,92509.44
2023-03-12T19:07:42.291Z,92504.72
2023-03-12T19:10:09.574Z,92508.13
2023-03-12T19:12:42.382Z,92508.06
2023-03-12T19:15:16.378Z,92501.88
2023-03-12T19:17:42.901Z,92503.31
2023-03-12T19:20:10.413Z,92500.06
2023-03-12T19:22:36.970Z,92489.47
2023-03-12T19:25:03.731Z,92491.72
2023-03-12T19:27:30.272Z,92503.22
2023-03-12T19:29:56.769Z,92498.78
2023-03-12T19:32:25.321Z,92506.91
2023-03-12T19:34:54.180Z,92516.00
2023-03-12T19:37:22.090Z,92516.19
2023-03-12T19:39:48.677Z,92505.91
2023-03-12T19:42:16.065Z,92515.38
2023-03-12T19:44:42.532Z,92522.56
2023-03-12T19:47:09.387Z,92523.31
2023-03-12T19:49:36.422Z,92528.31
2023-03-12T19:52:04.357Z,92533.66
2023-03-12T19:54:30.874Z,92540.00
2023-03-12T19:56:57.389Z,92535.06
2023-03-12T19:59:23.939Z,92534.09
2023-03-12T20:01:50.544Z,92537.50
2023-03-12T20:04:17.134Z,92530.28
2023-03-12T20:06:43.613Z,92535.19
2023-03-12T20:09:10.517Z,92536.94
2023-03-12T20:11:37.132Z,92524.47
2023-03-12T20:14:06.492Z,92528.41
2023-03-12T20:16:33.054Z,92525.28
2023-03-12T20:18:59.617Z,92529.41
2023-03-12T20:21:26.292Z,92526.22
2023-03-12T20:23:57.292Z,92514.34
2023-03-12T20:26:23.877Z,92527.50
2023-03-12T20:28:50.317Z,92517.69
2023-03-12T20:31:17.816Z,92512.81
2023-03-12T20:33:44.423Z,92514.34
2023-03-12T20:36:12.962Z,92516.03
2023-03-12T20:38:40.012Z,92512.59
2023-03-12T20:41:13.977Z,92505.38
2023-03-12T20:43:44.742Z,92491.59
2023-03-12T20:46:12.482Z,92507.03
2023-03-12T20:48:38.984Z,92508.78
2023-03-12T20:51:05.779Z,92502.09
2023-03-12T20:53:32.269Z,92490.91
2023-03-12T20:55:58.774Z,92497.22
2023-03-12T20:58:25.306Z,92490.72
2023-03-12T21:00:51.782Z,92501.06
2023-03-12T21:03:19.247Z,92491.66
2023-03-12T21:05:56.629Z,92485.34
2023-03-12T21:08:24.343Z,92484.66
2023-03-12T21:10:51.131Z,92483.81
2023-03-12T21:13:19.193Z,92478.94
2023-03-12T21:15:45.869Z,92472.50
2023-03-12T21:18:12.592Z,92473.19
2023-03-12T21:20:40.382Z,92459.53
2023-03-12T21:23:08.060Z,92454.63
2023-03-12T21:25:39.040Z,92457.13
2023-03-12T21:28:06.873Z,92465.31
2023-03-12T21:30:33.849Z,92458.88
2023-03-12T21:33:03.314Z,92459.00
2023-03-12T21:35:29.913Z,92458.78
2023-03-12T21:37:56.828Z,92463.78
2023-03-12T21:40:24.103Z,92447.72
2023-03-12T21:42:50.665Z,92457.44
2023-03-12T21:45:17.246Z,92448.47
2023-03-12T21:47:43.993Z,92447.16
2023-03-12T21:50:11.085Z,92443.97
2023-03-12T21:52:42.990Z,92446.28
2023-03-12T21:55:10.604Z,92438.22
2023-03-12T21:57:37.171Z,92432.50
2023-03-12T22:00:04.902Z,92426.78
2023-03-12T22:02:31.731Z,92433.34
2023-03-12T22:05:00.898Z,92426.78
2023-03-12T22:07:30.087Z,92430.69
2023-03-12T22:09:56.666Z,92422.13
2023-03-12T22:12:23.278Z,92424.59
2023-03-12T22:14:49.776Z,92419.66
2023-03-12T22:17:17.176Z,92426.72
2023-03-12T22:19:44.094Z,92417.97
2023-03-12T22:22:10.656Z,92414.56
2023-03-12T22:24:37.477Z,92422.75
2023-03-12T22:27:06.529Z,92418.84
2023-03-12T22:29:34.073Z,92430.13
2023-03-12T22:32:00.520Z,92420.22
2023-03-12T22:34:27.062Z,92426.59
2023-03-12T22:36:53.635Z,92417.63
2023-03-12T22:39:20.203Z,92407.25
2023-03-12T22:41:50.653Z,92415.22
2023-03-12T22:44:17.334Z,92404.94
2023-03-12T22:46:43.997Z,92407.53
2023-03-12T22:49:10.558Z,92403.41
2023-03-12T22:51:37.322Z,92396.13
2023-03-12T22:54:04.442Z,92402.50
2023-03-12T22:56:30.960Z,92400.34
2023-03-12T22:58:57.474Z,92397.94
2023-03-12T23:01:24.291Z,92387.34
2023-03-12T23:03:51.145Z,92378.56
2023-03-12T23:06:23.544Z,92375.28
2023-03-12T23:08:51.191Z,92371.31
2023-03-12T23:11:20.772Z,92372.72
2023-03-12T23:13:48.316Z,92379.84
2023-03-12T23:16:23.752Z,92383.13
2023-03-12T23:18:50.756Z,92378.31
2023-03-12T23:21:19.656Z,92378.34
2023-03-12T23:23:47.251Z,92389.75
2023-03-12T23:26:19.696Z,92381.53
2023-03-12T23:28:47.392Z,92379.16
2023-03-12T23:31:16.228Z,92367.66
2023-03-12T23:33:42.924Z,92354.66
2023-03-12T23:36:15.048Z,92342.47
2023-03-12T23:38:42.463Z,92348.97
2023-03-12T23:41:16.115Z,92348.22
2023-03-12T23:43:43.082Z,92360.09
2023-03-12T23:46:10.686Z,92361.84
2023-03-12T23:48:37.910Z,92362.53
2023-03-12T23:51:12.834Z,92331.06
2023-03-12T23:53:40.616Z,92347.94
2023-03-12T23:56:10.258Z,92355.03
2023-03-12T23:58:36.881Z,92348.47
